createdAt,value
2017-06-08T00:00:31.355Z,1.92
2017-06-08T00:02:57.679Z,2.45
2017-06-08T00:05:23.955Z,2.78
2017-06-08T00:07:50.251Z,2.55
2017-06-08T00:10:16.535Z,2.03
2017-06-08T00:12:42.815Z,2.10
2017-06-08T00:15:09.140Z,2.15
2017-06-08T00:17:35.603Z,2.65
2017-06-08T00:20:02.648Z,2.47
2017-06-08T00:22:28.971Z,2.22
2017-06-08T00:24:55.286Z,2.75
2017-06-08T00:27:21.551Z,1.90
2017-06-08T00:29:47.826Z,1.85
2017-06-08T00:32:14.121Z,2.78
2017-06-08T00:34:40.375Z,2.20
2017-06-08T00:37:06.655Z,2.33
2017-06-08T00:39:32.971Z,2.20
2017-06-08T00:41:59.300Z,2.10
2017-06-08T00:44:25.602Z,2.65
2017-06-08T00:46:51.890Z,2.87
2017-06-08T00:49:18.159Z,3.40
2017-06-08T00:51:44.497Z,2.62
2017-06-08T00:54:10.791Z,2.60
2017-06-08T00:56:37.075Z,2.90
2017-06-08T00:59:03.387Z,2.40
2017-06-08T01:01:29.674Z,2.10
2017-06-08T01:03:55.983Z,2.20
2017-06-08T01:06:22.999Z,2.60
2017-06-08T01:08:50.034Z,2.55
2017-06-08T01:11:16.330Z,2.30
2017-06-08T01:13:42.591Z,2.58
2017-06-08T01:16:08.921Z,2.10
2017-06-08T01:18:35.238Z,2.15
2017-06-08T01:21:01.614Z,2.60
2017-06-08T01:23:27.883Z,2.60
2017-06-08T01:25:54.251Z,2.70
2017-06-08T01:28:20.523Z,2.70
2017-06-08T01:30:46.895Z,2.30
2017-06-08T01:33:13.222Z,2.25
2017-06-08T01:35:39.515Z,1.85
2017-06-08T01:38:05.827Z,2.10
2017-06-08T01:40:32.199Z,2.33
2017-06-08T01:42:58.530Z,2.67
2017-06-08T01:45:24.831Z,2.72
2017-06-08T01:47:51.159Z,2.75
2017-06-08T01:50:17.454Z,2.70
2017-06-08T01:52:43.790Z,2.70
2017-06-08T01:55:10.103Z,2.20
2017-06-08T01:57:36.581Z,2.42
2017-06-08T02:00:03.367Z,2.17
2017-06-08T02:02:29.659Z,2.58
2017-06-08T02:04:55.935Z,2.95
2017-06-08T02:07:22.259Z,2.08
2017-06-08T02:09:48.634Z,2.45
2017-06-08T02:12:14.915Z,2.20
2017-06-08T02:14:41.611Z,2.45
2017-06-08T02:17:07.879Z,2.42
2017-06-08T02:19:34.162Z,2.70
2017-06-08T02:22:00.491Z,2.83
2017-06-08T02:24:26.771Z,2.25
2017-06-08T02:26:53.051Z,2.37
2017-06-08T02:29:19.390Z,2.70
2017-06-08T02:31:46.071Z,2.90
2017-06-08T02:34:12.395Z,2.95
2017-06-08T02:36:38.679Z,2.60
2017-06-08T02:39:04.936Z,3.58
2017-06-08T02:41:31.260Z,2.90
2017-06-08T02:43:57.563Z,2.40
2017-06-08T02:46:23.834Z,2.55
2017-06-08T02:48:50.117Z,3.25
2017-06-08T02:51:16.412Z,2.20
2017-06-08T02:53:42.759Z,2.83
2017-06-08T02:56:09.015Z,2.37
2017-06-08T02:58:35.336Z,2.45
2017-06-08T03:01:01.666Z,2.55
2017-06-08T03:03:27.919Z,2.50
2017-06-08T03:05:54.243Z,2.42
2017-06-08T03:08:20.620Z,3.30
2017-06-08T03:10:46.893Z,2.80
2017-06-08T03:13:13.191Z,3.30
2017-06-08T03:15:39.459Z,2.62
2017-06-08T03:18:05.779Z,3.10
2017-06-08T03:20:32.135Z,2.80
2017-06-08T03:22:58.422Z,3.20
2017-06-08T03:25:24.731Z,2.90
2017-06-08T03:27:51.019Z,3.28
2017-06-08T03:30:17.290Z,3.15
2017-06-08T03:32:43.563Z,3.70
2017-06-08T03:35:09.912Z,2.65
2017-06-08T03:37:36.279Z,3.80
2017-06-08T03:40:02.574Z,2.65
2017-06-08T03:42:28.887Z,2.80
2017-06-08T03:44:55.203Z,2.67
2017-06-08T03:47:22.039Z,2.90
2017-06-08T03:49:48.347Z,2.80
2017-06-08T03:52:14.667Z,2.40
2017-06-08T03:54:40.978Z,3.15
2017-06-08T03:57:07.275Z,2.47
2017-06-08T03:59:33.692Z,3.42
2017-06-08T04:01:59.951Z,3.05
2017-06-08T04:04:26.967Z,3.10
2017-06-08T04:06:53.280Z,2.55
2017-06-08T04:09:19.578Z,2.05
2017-06-08T04:11:46.811Z,2.78
2017-06-08T04:14:13.087Z,2.67
2017-06-08T04:16:40.135Z,2.87
2017-06-08T04:19:06.459Z,2.45
2017-06-08T04:21:32.735Z,2.67
2017-06-08T04:23:59.771Z,2.75
2017-06-08T04:26:26.083Z,2.90
2017-06-08T04:28:52.342Z,3.20
2017-06-08T04:31:18.635Z,2.53
2017-06-08T04:33:44.950Z,2.90
2017-06-08T04:36:11.203Z,2.20
2017-06-08T04:38:37.490Z,3.75
2017-06-08T04:41:03.867Z,3.20
2017-06-08T04:43:30.899Z,2.72
2017-06-08T04:45:57.175Z,2.50
2017-06-08T04:48:23.471Z,3.33
2017-06-08T04:50:49.734Z,3.75
2017-06-08T04:53:16.971Z,2.50
2017-06-08T04:55:43.339Z,2.70
2017-06-08T04:58:09.611Z,3.10
2017-06-08T05:00:35.886Z,2.58
2017-06-08T05:03:02.223Z,2.75
2017-06-08T05:05:28.483Z,3.33
2017-06-08T05:07:54.762Z,2.92
2017-06-08T05:10:21.071Z,4.43
2017-06-08T05:12:47.356Z,2.62
2017-06-08T05:15:13.639Z,3.22
2017-06-08T05:17:39.939Z,3.37
2017-06-08T05:20:06.256Z,3.17
2017-06-08T05:22:32.588Z,4.15
2017-06-08T05:24:58.988Z,3.72
2017-06-08T05:27:25.429Z,3.65
2017-06-08T05:29:51.848Z,3.37
2017-06-08T05:32:21.884Z,3.60
2017-06-08T05:34:48.348Z,3.50
2017-06-08T05:37:14.780Z,3.83
2017-06-08T05:39:41.197Z,3.20
2017-06-08T05:42:07.612Z,3.70
2017-06-08T05:44:34.089Z,3.90
2017-06-08T05:47:00.464Z,3.75
2017-06-08T05:49:26.853Z,3.90
2017-06-08T05:51:53.288Z,3.05
2017-06-08T05:54:19.716Z,3.10
2017-06-08T05:56:46.963Z,3.55
2017-06-08T05:59:13.711Z,2.90
2017-06-08T06:01:40.172Z,3.90
2017-06-08T06:04:06.584Z,3.87
2017-06-08T06:06:33.024Z,3.62
2017-06-08T06:09:00.224Z,4.03
2017-06-08T06:11:26.641Z,3.40
2017-06-08T06:13:53.072Z,3.75
2017-06-08T06:16:19.475Z,3.25
2017-06-08T06:18:46.728Z,3.20
2017-06-08T06:21:13.132Z,2.83
2017-06-08T06:23:39.543Z,2.90
2017-06-08T06:26:06.736Z,2.60
2017-06-08T06:28:33.127Z,2.43
2017-06-08T06:30:59.571Z,2.60
2017-06-08T06:33:25.961Z,2.60
2017-06-08T06:35:52.340Z,3.10
2017-06-08T06:38:18.804Z,2.90
2017-06-08T06:40:45.224Z,2.37
2017-06-08T06:43:11.624Z,2.40
2017-06-08T06:45:38.764Z,2.23
2017-06-08T06:48:05.203Z,2.33
2017-06-08T06:50:31.568Z,2.63
2017-06-08T06:52:58.002Z,2.67
2017-06-08T06:55:24.382Z,2.90
2017-06-08T06:57:51.526Z,1.60
2017-06-08T07:00:18.363Z,2.60
2017-06-08T07:02:44.772Z,2.40
2017-06-08T07:05:11.156Z,2.47
2017-06-08T07:07:37.637Z,2.10
2017-06-08T07:10:04.017Z,3.30
2017-06-08T07:12:30.416Z,2.23
2017-06-08T07:14:56.850Z,2.07
2017-06-08T07:17:23.248Z,2.20
2017-06-08T07:19:50.399Z,2.50
2017-06-08T07:22:16.804Z,2.50
2017-06-08T07:24:43.923Z,2.90
2017-06-08T07:27:10.344Z,2.43
2017-06-08T07:29:37.534Z,2.57
2017-06-08T07:32:03.923Z,2.27
2017-06-08T07:34:30.328Z,2.67
2017-06-08T07:36:56.744Z,2.27
2017-06-08T07:39:23.148Z,2.63
2017-06-08T07:41:50.276Z,2.13
2017-06-08T07:44:16.755Z,2.67
2017-06-08T07:46:43.142Z,2.17
2017-06-08T07:49:10.268Z,2.23
2017-06-08T07:51:36.676Z,2.20
2017-06-08T07:54:03.832Z,2.27
2017-06-08T07:56:30.223Z,2.27
2017-06-08T07:58:56.663Z,2.33
2017-06-08T08:01:35.987Z,2.80
2017-06-08T08:04:03.140Z,2.20
2017-06-08T08:06:29.548Z,2.20
2017-06-08T08:08:56.060Z,2.00
2017-06-08T08:11:22.468Z,1.87
2017-06-08T08:13:48.848Z,2.30
2017-06-08T08:16:15.972Z,2.10
2017-06-08T08:18:42.375Z,1.97
2017-06-08T08:21:08.764Z,2.60
2017-06-08T08:23:35.178Z,2.00
2017-06-08T08:26:01.596Z,1.70
2017-06-08T08:28:28.007Z,2.40
2017-06-08T08:30:54.364Z,2.20
2017-06-08T08:33:20.800Z,1.63
2017-06-08T08:35:47.192Z,1.80
2017-06-08T08:38:13.608Z,1.90
2017-06-08T08:40:40.033Z,2.10
2017-06-08T08:43:06.445Z,1.60
2017-06-08T08:45:32.887Z,1.60
2017-06-08T08:47:59.340Z,2.40
2017-06-08T08:50:25.756Z,2.10
2017-06-08T08:52:52.207Z,1.50
2017-06-08T08:55:18.684Z,2.00
2017-06-08T08:57:45.027Z,1.90
2017-06-08T09:00:11.367Z,1.90
2017-06-08T09:02:38.511Z,1.67
2017-06-08T09:05:05.640Z,3.60
2017-06-08T09:07:32.787Z,1.60
2017-06-08T09:09:59.467Z,1.93
2017-06-08T09:12:26.064Z,1.80
2017-06-08T09:14:52.456Z,1.87
2017-06-08T09:17:18.861Z,1.50
2017-06-08T09:19:45.253Z,1.57
2017-06-08T09:22:11.719Z,1.80
2017-06-08T09:24:38.405Z,1.50
2017-06-08T09:27:05.620Z,1.70
2017-06-08T09:29:32.812Z,1.57
2017-06-08T09:31:59.212Z,1.60
2017-06-08T09:34:25.564Z,1.60
2017-06-08T09:36:51.928Z,1.73
2017-06-08T09:39:19.172Z,1.70
2017-06-08T09:41:45.569Z,1.50
2017-06-08T09:44:12.036Z,1.40
2017-06-08T09:46:38.804Z,2.07
2017-06-08T09:49:05.186Z,1.30
2017-06-08T09:51:31.718Z,1.60
2017-06-08T09:53:58.123Z,1.73
2017-06-08T09:56:24.471Z,1.90
2017-06-08T09:58:51.595Z,1.70
2017-06-08T10:01:17.942Z,1.30
2017-06-08T10:03:45.032Z,1.30
2017-06-08T10:06:11.425Z,1.67
2017-06-08T10:08:37.810Z,1.90
2017-06-08T10:11:04.933Z,1.20
2017-06-08T10:13:32.067Z,1.47
2017-06-08T10:15:58.471Z,1.17
2017-06-08T10:18:24.848Z,1.27
2017-06-08T10:20:51.328Z,1.40
2017-06-08T10:23:18.464Z,2.33
2017-06-08T10:25:45.610Z,1.43
2017-06-08T10:28:12.016Z,2.17
2017-06-08T10:30:38.401Z,3.20
2017-06-08T10:33:04.744Z,2.70
2017-06-08T10:35:31.121Z,2.03
2017-06-08T10:37:57.532Z,1.50
2017-06-08T10:40:23.942Z,1.60
2017-06-08T10:42:50.336Z,1.33
2017-06-08T10:45:16.731Z,1.17
2017-06-08T10:47:43.104Z,1.73
2017-06-08T10:50:09.583Z,1.47
2017-06-08T10:52:36.768Z,2.57
2017-06-08T10:55:03.148Z,1.70
2017-06-08T10:57:29.547Z,1.37
2017-06-08T10:59:56.064Z,1.60
2017-06-08T11:02:22.421Z,1.50
2017-06-08T11:04:48.908Z,1.03
2017-06-08T11:07:16.194Z,1.33
2017-06-08T11:09:42.638Z,1.73
2017-06-08T11:12:09.816Z,1.30
2017-06-08T11:14:36.240Z,1.20
2017-06-08T11:17:02.678Z,1.97
2017-06-08T11:19:29.872Z,1.47
2017-06-08T11:21:56.272Z,1.03
2017-06-08T11:24:22.636Z,0.90
2017-06-08T11:26:49.013Z,1.30
2017-06-08T11:29:15.375Z,1.27
2017-06-08T11:31:42.452Z,1.03
2017-06-08T11:34:08.916Z,1.40
2017-06-08T11:36:35.357Z,1.90
2017-06-08T11:39:01.778Z,1.77
2017-06-08T11:41:28.172Z,1.50
2017-06-08T11:43:55.315Z,1.50
2017-06-08T11:46:21.765Z,1.33
2017-06-08T11:48:48.154Z,1.60
2017-06-08T11:51:14.543Z,1.00
2017-06-08T11:53:40.968Z,1.47
2017-06-08T11:56:07.364Z,1.30
2017-06-08T11:58:33.796Z,0.90
2017-06-08T12:01:00.163Z,1.53
2017-06-08T12:03:26.592Z,1.23
2017-06-08T12:05:53.000Z,1.20
2017-06-08T12:08:19.388Z,1.37
2017-06-08T12:10:45.772Z,1.20
2017-06-08T12:13:12.176Z,1.20
2017-06-08T12:15:38.528Z,2.00
2017-06-08T12:18:04.947Z,3.23
2017-06-08T12:20:31.389Z,1.63
2017-06-08T12:22:57.789Z,1.70
2017-06-08T12:25:24.211Z,1.63
2017-06-08T12:27:50.656Z,1.13
2017-06-08T12:30:17.068Z,1.53
2017-06-08T12:32:43.641Z,1.17
2017-06-08T12:35:10.027Z,1.43
2017-06-08T12:37:36.403Z,1.10
2017-06-08T12:40:02.840Z,1.50
2017-06-08T12:42:29.232Z,1.60
2017-06-08T12:44:55.615Z,1.40
2017-06-08T12:47:22.005Z,1.23
2017-06-08T12:49:49.160Z,1.00
2017-06-08T12:52:15.596Z,1.83
2017-06-08T12:54:41.960Z,0.90
2017-06-08T12:57:08.349Z,1.17
2017-06-08T12:59:34.699Z,0.90
2017-06-08T13:02:01.136Z,1.40
2017-06-08T13:04:28.248Z,1.37
2017-06-08T13:06:54.640Z,1.60
2017-06-08T13:09:21.043Z,1.70
2017-06-08T13:11:47.490Z,1.60
2017-06-08T13:14:13.875Z,1.50
2017-06-08T13:16:40.304Z,1.40
2017-06-08T13:19:06.865Z,1.60
2017-06-08T13:21:33.245Z,1.60
2017-06-08T13:24:00.363Z,1.20
2017-06-08T13:26:26.707Z,1.13
2017-06-08T13:28:53.076Z,1.30
2017-06-08T13:31:19.472Z,1.30
2017-06-08T13:33:45.859Z,1.10
2017-06-08T13:36:12.248Z,1.17
2017-06-08T13:38:38.627Z,1.13
2017-06-08T13:41:05.776Z,1.60
2017-06-08T13:43:32.200Z,0.97
2017-06-08T13:45:58.602Z,0.90
2017-06-08T13:48:25.000Z,1.00
2017-06-08T13:50:52.124Z,2.20
2017-06-08T13:53:18.532Z,1.63
2017-06-08T13:55:44.965Z,1.30
2017-06-08T13:58:11.352Z,1.20
2017-06-08T14:00:38.142Z,1.37
2017-06-08T14:03:04.561Z,1.20
2017-06-08T14:05:30.896Z,1.13
2017-06-08T14:07:57.308Z,1.20
2017-06-08T14:10:23.687Z,1.07
2017-06-08T14:12:50.079Z,1.57
2017-06-08T14:15:16.471Z,1.00
2017-06-08T14:17:42.896Z,1.30
2017-06-08T14:20:09.280Z,1.30
2017-06-08T14:22:35.700Z,1.20
2017-06-08T14:25:02.069Z,1.47
2017-06-08T14:27:29.212Z,1.27
2017-06-08T14:29:55.603Z,1.40
2017-06-08T14:32:21.991Z,0.80
2017-06-08T14:34:48.400Z,0.80
2017-06-08T14:37:14.816Z,0.93
2017-06-08T14:39:41.244Z,1.27
2017-06-08T14:42:07.656Z,3.27
2017-06-08T14:44:34.138Z,1.57
2017-06-08T14:47:00.556Z,1.23
2017-06-08T14:49:26.924Z,1.07
2017-06-08T14:51:53.448Z,1.37
2017-06-08T14:54:19.856Z,1.77
2017-06-08T14:56:46.215Z,1.27
2017-06-08T14:59:12.617Z,1.37
2017-06-08T15:01:39.793Z,1.50
2017-06-08T15:04:06.157Z,1.33
2017-06-08T15:06:33.260Z,1.30
2017-06-08T15:08:59.611Z,1.70
2017-06-08T15:11:26.761Z,1.20
2017-06-08T15:13:53.164Z,1.40
2017-06-08T15:16:20.279Z,1.40
2017-06-08T15:18:46.634Z,1.10
2017-06-08T15:21:13.039Z,1.13
2017-06-08T15:23:39.404Z,1.87
2017-06-08T15:26:05.813Z,1.40
2017-06-08T15:28:32.207Z,1.60
2017-06-08T15:30:58.636Z,1.20
2017-06-08T15:33:25.024Z,1.10
2017-06-08T15:35:51.423Z,1.53
2017-06-08T15:38:17.815Z,1.37
2017-06-08T15:40:44.181Z,1.23
2017-06-08T15:43:10.580Z,1.03
2017-06-08T15:45:36.966Z,1.20
2017-06-08T15:48:03.335Z,1.33
2017-06-08T15:50:29.744Z,1.57
2017-06-08T15:52:56.126Z,1.50
2017-06-08T15:55:22.502Z,1.30
2017-06-08T15:57:48.920Z,1.60
2017-06-08T16:00:15.396Z,1.00
2017-06-08T16:02:41.797Z,1.63
2017-06-08T16:05:08.931Z,1.00
2017-06-08T16:07:35.316Z,1.20
2017-06-08T16:10:01.693Z,1.50
2017-06-08T16:12:28.112Z,1.07
2017-06-08T16:14:54.527Z,1.53
2017-06-08T16:17:20.924Z,1.40
2017-06-08T16:19:47.351Z,1.10
2017-06-08T16:22:14.477Z,1.53
2017-06-08T16:24:40.999Z,1.70
2017-06-08T16:27:07.423Z,1.70
2017-06-08T16:29:33.828Z,2.37
2017-06-08T16:32:00.904Z,1.10
2017-06-08T16:34:28.190Z,1.37
2017-06-08T16:36:55.331Z,0.97
2017-06-08T16:39:22.463Z,1.60
2017-06-08T16:41:48.884Z,1.73
2017-06-08T16:44:16.036Z,1.20
2017-06-08T16:46:42.404Z,1.20
2017-06-08T16:49:08.790Z,0.80
2017-06-08T16:51:35.184Z,1.20
2017-06-08T16:54:01.608Z,1.70
2017-06-08T16:56:27.991Z,1.50
2017-06-08T16:58:54.379Z,1.80
2017-06-08T17:01:20.755Z,1.87
2017-06-08T17:03:47.153Z,1.27
2017-06-08T17:06:14.295Z,1.50
2017-06-08T17:08:41.455Z,1.10
2017-06-08T17:11:07.881Z,1.30
2017-06-08T17:13:34.285Z,1.60
2017-06-08T17:16:00.683Z,2.23
2017-06-08T17:18:27.051Z,1.60
2017-06-08T17:20:53.434Z,1.30
2017-06-08T17:23:19.819Z,1.40
2017-06-08T17:25:46.216Z,1.70
2017-06-08T17:28:12.581Z,1.50
2017-06-08T17:30:38.928Z,1.83
2017-06-08T17:33:05.320Z,1.27
2017-06-08T17:35:31.732Z,1.13
2017-06-08T17:37:58.095Z,1.37
2017-06-08T17:40:25.228Z,1.20
2017-06-08T17:42:51.635Z,1.40
2017-06-08T17:45:18.040Z,1.40
2017-06-08T17:47:44.399Z,1.40
2017-06-08T17:50:10.780Z,1.37
2017-06-08T17:52:37.157Z,1.07
2017-06-08T17:55:03.525Z,1.80
2017-06-08T17:57:29.896Z,1.27
2017-06-08T17:59:56.292Z,1.27
2017-06-08T18:02:22.684Z,2.67
2017-06-08T18:04:49.828Z,2.90
2017-06-08T18:07:16.236Z,1.07
2017-06-08T18:09:43.356Z,1.20
2017-06-08T18:12:10.580Z,1.20
2017-06-08T18:14:36.996Z,1.20
2017-06-08T18:17:03.404Z,1.20
2017-06-08T18:19:29.794Z,1.83
2017-06-08T18:21:56.186Z,2.30
2017-06-08T18:24:22.600Z,2.30
2017-06-08T18:26:49.786Z,1.20
2017-06-08T18:29:16.183Z,1.27
2017-06-08T18:31:42.608Z,1.10
2017-06-08T18:34:09.135Z,1.40
2017-06-08T18:36:35.557Z,1.80
2017-06-08T18:39:02.067Z,1.20
2017-06-08T18:41:28.514Z,1.37
2017-06-08T18:43:54.944Z,1.63
2017-06-08T18:46:22.534Z,1.13
2017-06-08T18:48:49.155Z,1.23
2017-06-08T18:51:16.390Z,1.00
2017-06-08T18:53:43.733Z,1.50
2017-06-08T18:56:10.869Z,1.43
2017-06-08T18:58:38.442Z,1.60
2017-06-08T19:01:05.799Z,2.53
2017-06-08T19:03:32.930Z,1.60
2017-06-08T19:06:00.009Z,1.77
2017-06-08T19:08:28.398Z,1.97
2017-06-08T19:10:55.818Z,1.60
2017-06-08T19:13:24.436Z,1.70
2017-06-08T19:15:52.338Z,1.50
2017-06-08T19:18:20.083Z,1.30
2017-06-08T19:20:47.831Z,2.00
2017-06-08T19:23:16.365Z,1.53
2017-06-08T19:25:45.450Z,1.33
2017-06-08T19:28:14.201Z,1.17
2017-06-08T19:30:43.628Z,1.50
2017-06-08T19:33:12.863Z,1.03
2017-06-08T19:35:41.334Z,1.23
2017-06-08T19:38:10.107Z,1.70
2017-06-08T19:40:39.877Z,2.20
2017-06-08T19:43:08.872Z,1.53
2017-06-08T19:45:38.399Z,2.43
2017-06-08T19:48:07.233Z,1.67
2017-06-08T19:50:35.139Z,2.73
2017-06-08T19:53:05.378Z,1.80
2017-06-08T19:55:35.504Z,2.03
2017-06-08T19:58:04.474Z,1.63
2017-06-08T20:00:34.120Z,1.40
2017-06-08T20:03:01.976Z,1.27
2017-06-08T20:05:30.528Z,1.50
2017-06-08T20:07:58.020Z,2.10
2017-06-08T20:10:26.681Z,1.97
2017-06-08T20:12:55.333Z,2.00
2017-06-08T20:15:23.495Z,2.60
2017-06-08T20:17:51.394Z,2.13
2017-06-08T20:20:19.197Z,2.60
2017-06-08T20:22:46.731Z,2.10
2017-06-08T20:25:14.782Z,2.22
2017-06-08T20:27:42.637Z,2.20
2017-06-08T20:30:12.243Z,2.00
2017-06-08T20:32:41.345Z,2.00
2017-06-08T20:35:09.348Z,2.30
2017-06-08T20:37:38.365Z,2.73
2017-06-08T20:40:07.196Z,2.60
2017-06-08T20:42:36.643Z,2.87
2017-06-08T20:45:04.920Z,3.03
2017-06-08T20:47:33.712Z,2.50
2017-06-08T20:50:02.184Z,2.97
2017-06-08T20:52:29.863Z,2.70
2017-06-08T20:54:57.625Z,2.60
2017-06-08T20:57:26.815Z,2.53
2017-06-08T20:59:54.095Z,2.57
2017-06-08T21:02:21.230Z,2.23
2017-06-08T21:04:47.995Z,2.13
2017-06-08T21:07:14.792Z,2.20
2017-06-08T21:09:41.383Z,2.63
2017-06-08T21:12:07.912Z,2.40
2017-06-08T21:14:34.351Z,2.50
2017-06-08T21:17:00.758Z,2.50
2017-06-08T21:19:27.159Z,2.80
2017-06-08T21:21:54.464Z,3.17
2017-06-08T21:24:20.828Z,3.00
2017-06-08T21:26:47.279Z,2.43
2017-06-08T21:29:13.664Z,2.47
2017-06-08T21:31:40.041Z,2.47
2017-06-08T21:34:06.464Z,2.80
2017-06-08T21:36:33.598Z,2.53
2017-06-08T21:39:00.783Z,2.80
2017-06-08T21:41:27.252Z,2.40
2017-06-08T21:43:53.631Z,2.60
2017-06-08T21:46:20.102Z,2.33
2017-06-08T21:48:46.519Z,2.63
2017-06-08T21:51:12.933Z,2.90
2017-06-08T21:53:39.384Z,2.10
2017-06-08T21:56:05.801Z,2.53
2017-06-08T21:58:32.332Z,2.20
2017-06-08T22:00:58.695Z,2.60
2017-06-08T22:03:25.165Z,2.87
2017-06-08T22:05:51.603Z,3.20
2017-06-08T22:08:17.975Z,3.07
2017-06-08T22:10:44.432Z,3.10
2017-06-08T22:13:10.808Z,2.90
2017-06-08T22:15:38.023Z,3.20
2017-06-08T22:18:04.481Z,3.37
2017-06-08T22:20:30.895Z,3.80
2017-06-08T22:22:57.261Z,3.00
2017-06-08T22:25:23.703Z,2.43
2017-06-08T22:27:50.087Z,3.00
2017-06-08T22:30:16.468Z,2.87
2017-06-08T22:32:43.043Z,3.03
2017-06-08T22:35:09.420Z,2.97
2017-06-08T22:37:35.859Z,2.40
2017-06-08T22:40:02.687Z,3.00
2017-06-08T22:42:29.264Z,2.60
2017-06-08T22:44:55.699Z,3.10
2017-06-08T22:47:22.208Z,2.60
2017-06-08T22:49:48.680Z,2.70
2017-06-08T22:52:15.088Z,2.47
2017-06-08T22:54:41.512Z,2.80
2017-06-08T22:57:07.939Z,2.90
2017-06-08T22:59:34.337Z,2.70
2017-06-08T23:02:00.723Z,3.07
2017-06-08T23:04:27.165Z,2.70
2017-06-08T23:06:53.599Z,2.60
2017-06-08T23:09:20.031Z,2.80
2017-06-08T23:11:46.403Z,2.55
2017-06-08T23:14:12.928Z,2.30
2017-06-08T23:16:39.324Z,1.93
2017-06-08T23:19:05.744Z,2.78
2017-06-08T23:21:32.164Z,2.77
2017-06-08T23:23:58.588Z,2.80
2017-06-08T23:26:24.985Z,2.63
2017-06-08T23:28:51.445Z,2.33
2017-06-08T23:31:17.938Z,2.47
2017-06-08T23:33:44.320Z,2.73
2017-06-08T23:36:10.741Z,2.43
2017-06-08T23:38:37.132Z,3.17
2017-06-08T23:41:03.487Z,2.73
2017-06-08T23:43:29.953Z,2.73
2017-06-08T23:45:57.051Z,2.90
2017-06-08T23:48:23.439Z,2.90
2017-06-08T23:50:49.871Z,3.10
2017-06-08T23:53:16.258Z,2.50
2017-06-08T23:55:42.663Z,2.95
2017-06-08T23:58:09.087Z,2.97
